Time;durP1;ratioP1;P1;durP2;ratioP2;P2;SDS_P1;SDS_P2;PMS_P1;PMS_P2;Temp;Humidity;BMP_temperature;BMP_pressure;BME280_temperature;BME280_humidity;BME280_pressure;Samples;Min_cycle;Max_cycle;Signal;HPM_P1;HPM_P2
2023/08/20 00:01:01;;;;;;;13.53;12.53;;;24.10;99.90;;;;;;5064486;28;20457;-77
2023/08/20 00:03:32;;;;;;;12.60;11.50;;;24.10;99.90;;;;;;5061761;28;20480;-77
2023/08/20 00:06:02;;;;;;;13.30;12.10;;;24.10;99.90;;;;;;5060040;28;20465;-78
2023/08/20 00:08:33;;;;;;;13.43;12.20;;;24.10;99.90;;;;;;5055757;28;20446;-77
2023/08/20 00:11:11;;;;;;;13.17;11.87;;;24.10;99.90;;;;;;5056101;28;20441;-77
2023/08/20 00:13:45;;;;;;;13.37;12.10;;;24.10;99.90;;;;;;5056001;28;20469;-76
2023/08/20 00:16:38;;;;;;;13.97;12.77;;;24.10;99.90;;;;;;5057852;28;20468;-77
2023/08/20 00:19:13;;;;;;;12.80;11.50;;;24.00;99.90;;;;;;5056578;28;20503;-76
2023/08/20 00:21:49;;;;;;;12.97;11.87;;;24.00;99.90;;;;;;5058546;28;20456;-79
2023/08/20 00:24:21;;;;;;;12.80;11.90;;;24.00;99.90;;;;;;5037730;28;20473;-77
2023/08/20 00:26:54;;;;;;;12.50;11.50;;;24.00;99.90;;;;;;5037212;28;20474;-77
2023/08/20 00:29:32;;;;;;;12.93;11.87;;;23.90;99.90;;;;;;5037384;28;20862;-79
2023/08/20 00:32:12;;;;;;;13.40;12.30;;;23.90;99.90;;;;;;5034376;28;20450;-79
2023/08/20 00:34:43;;;;;;;13.17;12.00;;;23.90;99.90;;;;;;5034791;28;20574;-79
2023/08/20 00:37:12;;;;;;;13.17;12.10;;;23.90;99.90;;;;;;5033997;28;20466;-79
2023/08/20 00:39:43;;;;;;;13.80;12.63;;;23.90;99.90;;;;;;5034845;28;20446;-79
2023/08/20 00:42:14;;;;;;;13.13;11.90;;;23.90;99.90;;;;;;5039969;28;20462;-75
2023/08/20 00:44:50;;;;;;;12.80;11.70;;;23.90;99.90;;;;;;5042300;28;20482;-78
2023/08/20 00:47:19;;;;;;;12.63;11.50;;;23.80;99.90;;;;;;5038470;28;20580;-80
2023/08/20 00:49:48;;;;;;;13.20;12.27;;;23.80;99.90;;;;;;5035791;28;20546;-78
2023/08/20 00:52:28;;;;;;;12.90;11.90;;;23.70;99.90;;;;;;5039561;28;20446;-77
2023/08/20 00:54:58;;;;;;;13.87;12.63;;;23.60;99.90;;;;;;5039868;28;20454;-78
2023/08/20 00:57:44;;;;;;;13.63;12.30;;;23.60;99.90;;;;;;5041872;28;20478;-77
2023/08/20 01:00:19;;;;;;;12.57;11.57;;;23.70;99.90;;;;;;5037286;28;20469;-79
2023/08/20 01:02:47;;;;;;;13.13;12.13;;;23.60;99.90;;;;;;5038631;28;20472;-77
2023/08/20 01:05:23;;;;;;;13.03;12.03;;;23.60;99.90;;;;;;5038980;28;20965;-78
2023/08/20 01:08:10;;;;;;;13.67;12.57;;;23.60;99.90;;;;;;5046055;28;20441;-78
2023/08/20 01:10:49;;;;;;;13.83;12.43;;;23.50;99.90;;;;;;5044088;28;20462;-78
2023/08/20 01:13:23;;;;;;;13.77;12.67;;;23.50;99.90;;;;;;5048231;28;20447;-76
2023/08/20 01:15:56;;;;;;;13.50;12.10;;;23.40;99.90;;;;;;5048096;28;20473;-78
2023/08/20 01:18:43;;;;;;;13.20;12.00;;;23.40;99.90;;;;;;5050640;28;20445;-76
2023/08/20 01:21:48;;;;;;;13.30;12.20;;;23.50;99.90;;;;;;5050814;28;20447;-76
2023/08/20 01:24:34;;;;;;;13.80;12.60;;;23.40;99.90;;;;;;5073771;28;20473;-79
2023/08/20 01:30:14;;;;;;;14.20;13.00;;;23.30;99.90;;;;;;5061602;28;20429;-76
2023/08/20 01:32:43;;;;;;;13.30;12.30;;;23.30;99.90;;;;;;5064244;28;20441;-77
2023/08/20 01:35:15;;;;;;;12.77;11.87;;;23.30;99.90;;;;;;5066509;28;20441;-78
2023/08/20 01:37:48;;;;;;;13.23;12.23;;;23.30;99.90;;;;;;5066657;28;20525;-77
2023/08/20 01:43:10;;;;;;;13.23;11.70;;;23.30;99.90;;;;;;5061891;28;20453;-76
2023/08/20 01:45:47;;;;;;;13.93;12.93;;;23.20;99.90;;;;;;5072322;28;20446;-77
2023/08/20 01:48:16;;;;;;;13.20;12.20;;;23.20;99.90;;;;;;5072114;28;20457;-77
2023/08/20 01:50:47;;;;;;;13.90;12.70;;;23.10;99.90;;;;;;5069462;28;20465;-76
2023/08/20 01:53:20;;;;;;;13.67;12.60;;;22.80;99.90;;;;;;5066972;28;20452;-79
2023/08/20 01:55:58;;;;;;;16.53;12.70;;;23.20;99.90;;;;;;5065911;28;20466;-78
2023/08/20 01:58:30;;;;;;;14.13;12.73;;;23.10;99.90;;;;;;5066241;28;20811;-79
2023/08/20 02:01:24;;;;;;;14.50;13.00;;;23.10;99.90;;;;;;5069732;28;20445;-80
2023/08/20 02:03:53;;;;;;;14.30;13.13;;;23.10;99.90;;;;;;5067800;28;20473;-79
2023/08/20 02:06:24;;;;;;;13.83;12.73;;;23.00;99.90;;;;;;5068319;28;20473;-78
2023/08/20 02:08:55;;;;;;;13.70;12.70;;;23.00;99.90;;;;;;5066062;28;20472;-79
2023/08/20 02:11:26;;;;;;;15.00;13.90;;;23.00;99.90;;;;;;5064441;28;20480;-77
2023/08/20 02:13:55;;;;;;;13.90;12.80;;;23.00;99.90;;;;;;5062487;28;20434;-77
2023/08/20 02:16:25;;;;;;;14.43;13.23;;;22.80;99.90;;;;;;5060476;28;20505;-78
2023/08/20 02:18:53;;;;;;;14.07;12.97;;;22.80;99.90;;;;;;5063628;28;20540;-77
2023/08/20 02:21:25;;;;;;;14.37;13.00;;;22.80;99.90;;;;;;5066096;28;20453;-77
2023/08/20 02:23:52;;;;;;;14.80;13.50;;;22.80;99.90;;;;;;5067298;28;20489;-79
2023/08/20 02:26:23;;;;;;;14.93;13.40;;;22.70;99.90;;;;;;5066318;28;20477;-77
2023/08/20 02:28:54;;;;;;;15.10;13.77;;;22.70;99.90;;;;;;5064908;28;20897;-77
2023/08/20 02:31:24;;;;;;;15.93;14.43;;;22.70;99.90;;;;;;5064513;28;20465;-76
2023/08/20 02:33:57;;;;;;;16.03;14.70;;;22.60;99.90;;;;;;5064322;28;20441;-78
2023/08/20 02:36:32;;;;;;;15.63;14.20;;;22.60;99.90;;;;;;5064233;28;20462;-79
2023/08/20 02:39:10;;;;;;;15.10;13.97;;;22.70;99.90;;;;;;5064287;28;20449;-79
2023/08/20 02:41:41;;;;;;;15.70;14.37;;;22.60;99.90;;;;;;5060464;28;20453;-78
2023/08/20 02:44:19;;;;;;;15.63;14.23;;;22.70;99.90;;;;;;5063819;28;20477;-76
2023/08/20 02:46:56;;;;;;;16.50;15.03;;;22.60;99.90;;;;;;5063659;28;20492;-79
2023/08/20 02:49:29;;;;;;;15.77;14.27;;;22.50;99.90;;;;;;5063002;28;20532;-78
2023/08/20 02:51:59;;;;;;;16.77;15.23;;;22.50;99.90;;;;;;5061116;28;20453;-76
2023/08/20 02:54:32;;;;;;;17.13;14.73;;;22.20;99.90;;;;;;5062159;28;20430;-78
2023/08/20 02:57:03;;;;;;;15.50;14.10;;;22.50;99.90;;;;;;5063266;28;20477;-79
2023/08/20 02:59:31;;;;;;;15.37;13.97;;;22.50;99.90;;;;;;5061833;28;20449;-78
2023/08/20 03:02:04;;;;;;;16.23;14.70;;;22.50;99.90;;;;;;5067954;28;20476;-78
2023/08/20 03:04:35;;;;;;;15.13;14.07;;;22.40;99.90;;;;;;5068849;28;20481;-78
2023/08/20 03:07:04;;;;;;;16.83;15.40;;;22.40;99.90;;;;;;5067417;28;20472;-77
2023/08/20 03:09:33;;;;;;;16.50;15.10;;;22.40;99.90;;;;;;5067791;28;20437;-78
2023/08/20 03:12:04;;;;;;;15.27;14.17;;;22.30;99.90;;;;;;5065092;28;20457;-77
2023/08/20 03:14:39;;;;;;;17.27;15.90;;;22.30;99.90;;;;;;5066526;28;20537;-79
2023/08/20 03:17:10;;;;;;;17.30;15.77;;;22.30;99.90;;;;;;5061532;28;20576;-80
2023/08/20 03:19:55;;;;;;;16.20;14.87;;;22.20;99.90;;;;;;5064022;28;20450;-77
2023/08/20 03:22:31;;;;;;;16.90;15.50;;;22.20;99.90;;;;;;5070275;28;20483;-78
2023/08/20 03:25:10;;;;;;;16.53;15.23;;;22.30;99.90;;;;;;5071967;28;20477;-77
2023/08/20 03:27:38;;;;;;;16.80;15.40;;;22.20;99.90;;;;;;5075064;28;20623;-77
2023/08/20 03:30:08;;;;;;;16.73;15.40;;;22.10;99.90;;;;;;5072046;28;20463;-77
2023/08/20 03:32:38;;;;;;;15.83;14.53;;;22.10;99.90;;;;;;5072380;28;20489;-78
2023/08/20 03:35:06;;;;;;;16.27;14.97;;;22.10;99.90;;;;;;5066517;28;20460;-80
2023/08/20 03:37:34;;;;;;;15.93;14.63;;;22.10;99.90;;;;;;5061254;28;20465;-78
2023/08/20 03:40:04;;;;;;;16.00;14.80;;;22.10;99.90;;;;;;5063515;28;20799;-78
2023/08/20 03:42:32;;;;;;;17.90;16.30;;;22.10;99.90;;;;;;5062329;28;20527;-77
2023/08/20 03:45:00;;;;;;;18.73;16.97;;;22.00;99.90;;;;;;5064283;28;20469;-78
2023/08/20 03:47:31;;;;;;;17.10;15.60;;;22.00;99.90;;;;;;5063717;28;20560;-78
2023/08/20 03:50:00;;;;;;;18.03;16.60;;;22.00;99.90;;;;;;5061456;28;20440;-77
2023/08/20 03:52:29;;;;;;;17.90;16.23;;;22.00;99.90;;;;;;5062687;28;20454;-77
2023/08/20 03:55:03;;;;;;;16.77;15.47;;;22.00;99.90;;;;;;5062501;28;20533;-79
2023/08/20 03:57:36;;;;;;;17.00;15.30;;;21.90;99.90;;;;;;5063115;28;20468;-78
2023/08/20 04:00:14;;;;;;;16.43;15.03;;;21.90;99.90;;;;;;5062190;28;20837;-77
2023/08/20 04:03:03;;;;;;;16.70;15.40;;;21.90;99.90;;;;;;5062005;28;20887;-77
2023/08/20 04:05:39;;;;;;;17.20;15.70;;;21.60;99.90;;;;;;5063304;28;20528;-78
2023/08/20 04:08:08;;;;;;;16.83;15.40;;;21.80;99.90;;;;;;5063945;28;20540;-79
2023/08/20 04:10:36;;;;;;;16.93;15.50;;;21.70;99.90;;;;;;5058660;28;20564;-77
2023/08/20 04:13:06;;;;;;;17.53;16.07;;;21.70;99.90;;;;;;5059531;28;20537;-79
2023/08/20 04:15:34;;;;;;;18.10;16.50;;;21.70;99.90;;;;;;5059241;28;20484;-78
2023/08/20 04:18:08;;;;;;;17.57;16.00;;;21.70;99.90;;;;;;5058727;28;20525;-78
2023/08/20 04:20:42;;;;;;;17.23;15.90;;;21.70;99.90;;;;;;5058030;28;20453;-78
2023/08/20 04:23:10;;;;;;;17.93;16.27;;;21.60;99.90;;;;;;5057287;28;20530;-78
2023/08/20 04:25:42;;;;;;;17.67;16.20;;;21.60;99.90;;;;;;5061677;28;20482;-79
2023/08/20 04:28:10;;;;;;;17.57;16.27;;;21.60;99.90;;;;;;5062021;28;20639;-77
2023/08/20 04:30:49;;;;;;;19.27;17.57;;;21.60;99.90;;;;;;5061238;28;20454;-78
2023/08/20 04:33:22;;;;;;;17.40;16.00;;;21.50;99.90;;;;;;5066718;28;20481;-78
2023/08/20 04:35:58;;;;;;;18.93;17.30;;;21.50;99.90;;;;;;5066002;28;20508;-79
2023/08/20 04:38:48;;;;;;;17.57;16.10;;;21.40;99.90;;;;;;5065079;28;20991;-80
2023/08/20 04:41:36;;;;;;;17.33;16.03;;;21.40;99.90;;;;;;5059104;28;20448;-78
2023/08/20 04:44:12;;;;;;;17.67;15.97;;;21.40;99.90;;;;;;5059115;28;20538;-76
2023/08/20 04:46:45;;;;;;;17.93;16.57;;;21.40;99.90;;;;;;5059486;28;20501;-77
2023/08/20 04:49:13;;;;;;;17.70;16.20;;;21.40;99.90;;;;;;5059044;28;20489;-77
2023/08/20 04:51:55;;;;;;;18.07;16.50;;;21.40;99.90;;;;;;5059268;28;20473;-78
2023/08/20 04:54:24;;;;;;;16.63;15.40;;;21.40;99.90;;;;;;5059812;28;20458;-78
2023/08/20 04:56:53;;;;;;;18.37;16.77;;;21.20;99.90;;;;;;5060936;28;20477;-77
2023/08/20 04:59:26;;;;;;;18.53;16.83;;;21.50;99.90;;;;;;5061494;28;20456;-79
2023/08/20 05:01:54;;;;;;;18.27;16.77;;;21.50;99.90;;;;;;5060350;28;20449;-80
2023/08/20 05:04:21;;;;;;;16.67;15.40;;;21.50;99.90;;;;;;5057810;28;20880;-78
2023/08/20 05:06:54;;;;;;;18.00;16.43;;;21.50;99.90;;;;;;5057991;28;20456;-79
2023/08/20 05:09:26;;;;;;;17.00;15.63;;;21.50;99.90;;;;;;5058181;28;20442;-77
2023/08/20 05:12:19;;;;;;;16.70;15.40;;;21.50;99.90;;;;;;5057727;28;20442;-77
2023/08/20 05:15:17;;;;;;;16.50;15.20;;;21.50;99.90;;;;;;5058675;28;20476;-79
2023/08/20 05:24:11;;;;;;;18.60;16.90;;;21.60;99.90;;;;;;5057462;28;20422;-77
2023/08/20 05:26:40;;;;;;;18.10;16.10;;;21.60;99.90;;;;;;5061309;28;20474;-78
2023/08/20 05:29:10;;;;;;;18.60;16.90;;;21.70;99.90;;;;;;5061068;28;20438;-78
2023/08/20 05:31:43;;;;;;;16.83;15.23;;;21.70;99.90;;;;;;5060542;28;20556;-78
2023/08/20 05:34:11;;;;;;;20.23;16.00;;;21.60;99.90;;;;;;5060389;28;20441;-80
2023/08/20 05:36:49;;;;;;;18.03;16.53;;;21.70;99.90;;;;;;5064485;28;20469;-77
2023/08/20 05:39:18;;;;;;;17.90;16.27;;;21.70;99.90;;;;;;5063936;28;20473;-77
2023/08/20 05:41:57;;;;;;;17.20;15.80;;;21.50;99.90;;;;;;5064514;28;20448;-78
2023/08/20 05:44:45;;;;;;;18.87;17.00;;;21.80;99.90;;;;;;5063690;28;20485;-77
2023/08/20 05:47:25;;;;;;;17.70;16.10;;;21.90;99.90;;;;;;5064196;28;20557;-77
2023/08/20 05:49:56;;;;;;;16.87;15.23;;;22.00;99.90;;;;;;5063517;28;20521;-79
2023/08/20 05:52:38;;;;;;;18.40;16.60;;;22.00;99.90;;;;;;5065426;28;20997;-80
2023/08/20 05:55:09;;;;;;;16.87;15.57;;;22.00;99.90;;;;;;5064327;28;20476;-77
2023/08/20 06:00:35;;;;;;;16.93;15.70;;;22.30;99.90;;;;;;5059986;28;20453;-78
2023/08/20 06:03:14;;;;;;;17.50;15.90;;;22.40;99.90;;;;;;5063820;28;20445;-78
2023/08/20 06:05:57;;;;;;;16.90;15.17;;;22.50;99.90;;;;;;5063287;28;20485;-76
2023/08/20 06:08:32;;;;;;;16.70;15.03;;;22.70;99.90;;;;;;5065969;28;20453;-77
2023/08/20 06:11:07;;;;;;;16.83;15.50;;;22.80;99.90;;;;;;5066604;28;20802;-78
2023/08/20 06:13:41;;;;;;;17.57;15.60;;;23.00;99.90;;;;;;5066921;28;20509;-79
2023/08/20 06:16:36;;;;;;;17.33;15.83;;;23.10;99.90;;;;;;5064958;28;20859;-81
2023/08/20 06:23:14;;;;;;;;;;;;;;;;;;;;;
2023/08/20 06:26:13;;;;;;;17.80;16.20;;;23.50;99.90;;;;;;5064181;28;20500;-75
2023/08/20 06:29:14;;;;;;;16.47;15.10;;;23.50;99.90;;;;;;5061882;28;20481;-78
2023/08/20 06:31:48;;;;;;;16.60;15.27;;;23.70;99.90;;;;;;5067891;28;20452;-77
2023/08/20 06:34:24;;;;;;;16.40;15.03;;;23.80;99.90;;;;;;5062051;28;20446;-75
2023/08/20 06:37:20;;;;;;;15.20;14.00;;;23.80;99.90;;;;;;5043563;28;20480;-76
2023/08/20 06:40:11;;;;;;;17.27;15.70;;;24.00;99.90;;;;;;5059525;28;20454;-78
2023/08/20 06:42:46;;;;;;;16.37;14.80;;;24.00;99.90;;;;;;5060089;28;20480;-77
2023/08/20 06:45:19;;;;;;;16.53;15.10;;;24.10;99.90;;;;;;5059816;28;20571;-77
2023/08/20 06:47:57;;;;;;;16.07;14.80;;;24.10;99.90;;;;;;5061084;28;20457;-76
2023/08/20 06:50:34;;;;;;;16.73;15.20;;;24.20;99.90;;;;;;5049534;28;20461;-76
2023/08/20 06:53:13;;;;;;;16.93;15.53;;;24.40;99.90;;;;;;5059888;28;20450;-76
2023/08/20 06:56:02;;;;;;;14.90;13.47;;;24.50;99.90;;;;;;5060798;28;21019;-76
2023/08/20 06:58:41;;;;;;;15.60;14.40;;;24.60;99.90;;;;;;5062528;28;20472;-78
2023/08/20 07:01:44;;;;;;;;;;;;;;;;;;;;;
2023/08/20 07:04:14;;;;;;;15.57;14.07;;;24.70;99.90;;;;;;5060817;28;20503;-77
2023/08/20 07:06:51;;;;;;;16.27;14.90;;;24.70;99.90;;;;;;5060029;28;20549;-78
2023/08/20 07:09:57;;;;;;;14.53;13.43;;;24.90;99.90;;;;;;5059791;28;20484;-76
2023/08/20 07:15:39;;;;;;;15.73;14.20;;;25.10;99.90;;;;;;5059359;28;20433;-78
2023/08/20 07:21:37;;;;;;;14.00;12.90;;;25.10;99.90;;;;;;5058905;28;20448;-77
2023/08/20 07:27:12;;;;;;;14.23;13.17;;;25.30;99.90;;;;;;5056011;28;20458;-79
2023/08/20 07:30:31;;;;;;;15.83;14.50;;;25.50;99.90;;;;;;5053777;28;20521;-78
2023/08/20 07:33:03;;;;;;;15.63;14.20;;;25.60;99.90;;;;;;5048806;28;20457;-78
2023/08/20 07:36:04;;;;;;;14.93;13.73;;;25.70;99.90;;;;;;5068100;28;20445;-76
2023/08/20 07:38:57;;;;;;;16.00;14.50;;;25.80;99.90;;;;;;5063726;28;20457;-77
2023/08/20 07:41:34;;;;;;;14.80;13.43;;;25.90;99.90;;;;;;5060972;28;20504;-80
2023/08/20 07:44:09;;;;;;;15.63;14.30;;;26.00;99.90;;;;;;5057607;28;20453;-79
2023/08/20 07:47:12;;;;;;;15.40;13.90;;;26.00;99.90;;;;;;5055802;28;20480;-77
2023/08/20 07:49:46;;;;;;;14.50;13.40;;;26.20;99.90;;;;;;5058944;28;20457;-77
2023/08/20 07:52:17;;;;;;;14.50;13.00;;;26.10;99.90;;;;;;5060406;28;20520;-79
2023/08/20 07:54:45;;;;;;;14.83;13.43;;;26.20;99.90;;;;;;5058627;28;20453;-78
2023/08/20 07:57:21;;;;;;;15.57;14.13;;;26.30;99.90;;;;;;5060746;28;20480;-78
2023/08/20 08:00:04;;;;;;;16.73;15.03;;;26.40;99.90;;;;;;5059830;28;20511;-78
2023/08/20 08:02:42;;;;;;;14.13;12.90;;;26.50;99.90;;;;;;5070887;28;20418;-80
2023/08/20 08:05:13;;;;;;;14.80;13.53;;;26.60;99.90;;;;;;5061017;28;20469;-77
2023/08/20 08:07:49;;;;;;;15.30;14.20;;;26.60;99.90;;;;;;5062438;28;20465;-77
2023/08/20 08:10:26;;;;;;;15.00;13.80;;;26.60;99.90;;;;;;5064481;28;20513;-78
2023/08/20 08:13:09;;;;;;;15.60;14.40;;;26.80;99.90;;;;;;5064561;28;20472;-77
2023/08/20 08:15:38;;;;;;;15.87;14.00;;;26.80;99.90;;;;;;5073879;28;20496;-77
2023/08/20 08:18:13;;;;;;;15.07;13.80;;;26.90;99.90;;;;;;5072647;28;20425;-79
2023/08/20 08:20:45;;;;;;;14.33;13.37;;;27.10;99.90;;;;;;5073727;28;20441;-78
2023/08/20 08:23:19;;;;;;;14.17;13.07;;;27.00;99.90;;;;;;5073953;28;20452;-77
2023/08/20 08:26:00;;;;;;;14.60;13.40;;;27.00;99.90;;;;;;5072873;28;20510;-78
2023/08/20 08:28:28;;;;;;;13.73;12.53;;;27.30;99.90;;;;;;5055639;28;20484;-77
2023/08/20 08:30:59;;;;;;;13.40;12.27;;;27.60;99.90;;;;;;5055653;28;20495;-79
2023/08/20 08:33:35;;;;;;;13.57;12.40;;;27.80;99.90;;;;;;5056389;28;20476;-76
2023/08/20 08:36:04;;;;;;;14.77;13.30;;;28.00;99.90;;;;;;5057204;28;20495;-76
2023/08/20 08:38:42;;;;;;;15.23;13.73;;;28.20;99.90;;;;;;5070956;28;20446;-77
2023/08/20 08:41:20;;;;;;;13.80;12.60;;;28.30;99.90;;;;;;5073583;28;20453;-77
2023/08/20 08:43:58;;;;;;;14.53;13.37;;;28.50;99.90;;;;;;5070231;28;20454;-77
2023/08/20 08:46:49;;;;;;;14.53;13.40;;;28.50;99.90;;;;;;5067551;28;20481;-77
2023/08/20 08:49:26;;;;;;;12.57;11.63;;;28.50;99.90;;;;;;5063721;28;20519;-78
2023/08/20 08:52:13;;;;;;;13.77;12.57;;;28.70;99.90;;;;;;5062764;28;20679;-79
2023/08/20 08:54:52;;;;;;;14.13;12.80;;;28.90;99.90;;;;;;5063197;28;20454;-76
2023/08/20 08:57:27;;;;;;;14.93;13.63;;;29.20;99.90;;;;;;5062541;28;20453;-76
2023/08/20 08:59:54;;;;;;;13.77;12.63;;;29.30;99.90;;;;;;5063467;28;20492;-78
2023/08/20 09:02:23;;;;;;;14.20;13.10;;;29.20;99.90;;;;;;5062381;28;20477;-76
2023/08/20 09:04:56;;;;;;;14.13;12.80;;;29.10;99.90;;;;;;5060332;28;20548;-79
2023/08/20 09:07:24;;;;;;;13.93;12.90;;;29.40;99.90;;;;;;5057728;28;20470;-79
2023/08/20 09:10:00;;;;;;;15.17;13.47;;;29.30;99.90;;;;;;5059653;28;20442;-78
2023/08/20 09:12:29;;;;;;;13.13;12.10;;;29.00;99.90;;;;;;5060342;28;20479;-77
2023/08/20 09:15:00;;;;;;;13.97;12.87;;;29.30;99.90;;;;;;5059713;28;20464;-76
2023/08/20 09:17:29;;;;;;;14.30;13.13;;;29.70;99.90;;;;;;5059340;28;20477;-77
2023/08/20 09:19:58;;;;;;;12.90;12.00;;;29.60;99.90;;;;;;5057457;28;20956;-78
2023/08/20 09:22:37;;;;;;;13.63;12.60;;;29.70;99.90;;;;;;5058617;28;20448;-80
2023/08/20 09:25:09;;;;;;;13.73;11.93;;;29.80;99.90;;;;;;5059051;28;20454;-79
2023/08/20 09:27:44;;;;;;;12.77;11.77;;;30.20;99.90;;;;;;5058948;28;20957;-78
2023/08/20 09:30:23;;;;;;;12.00;11.00;;;30.50;99.90;;;;;;5060096;28;20433;-75
2023/08/20 09:33:08;;;;;;;14.10;12.33;;;30.80;99.90;;;;;;5060060;28;20635;-76
2023/08/20 09:35:40;;;;;;;11.77;10.67;;;30.90;99.90;;;;;;5057281;28;20430;-77
2023/08/20 09:38:16;;;;;;;13.70;12.37;;;31.00;99.90;;;;;;5059298;28;20449;-77
2023/08/20 09:40:56;;;;;;;12.80;11.70;;;31.10;99.90;;;;;;5058352;28;20448;-79
2023/08/20 09:43:31;;;;;;;12.57;11.40;;;31.10;99.90;;;;;;5059685;28;20446;-78
2023/08/20 09:46:04;;;;;;;11.90;10.80;;;31.20;99.90;;;;;;5058597;28;20544;-80
2023/08/20 09:48:44;;;;;;;12.07;10.97;;;31.30;99.90;;;;;;5059547;28;20511;-77
2023/08/20 09:51:13;;;;;;;10.87;9.97;;;31.60;99.90;;;;;;5057940;28;20477;-80
2023/08/20 09:53:53;;;;;;;11.30;10.50;;;31.80;99.90;;;;;;5061273;28;20540;-77
2023/08/20 09:56:28;;;;;;;11.60;10.80;;;31.90;99.90;;;;;;5059901;28;20977;-77
2023/08/20 09:58:59;;;;;;;12.07;10.97;;;31.20;99.90;;;;;;5056718;28;20476;-78
2023/08/20 10:01:27;;;;;;;12.53;11.30;;;31.70;99.90;;;;;;5054891;28;20473;-78
2023/08/20 10:03:57;;;;;;;12.10;11.30;;;32.10;99.90;;;;;;5055696;28;20488;-79
2023/08/20 10:06:28;;;;;;;12.47;11.27;;;32.30;99.90;;;;;;5055726;28;21052;-80
2023/08/20 10:08:56;;;;;;;11.70;10.63;;;32.80;99.90;;;;;;5056946;28;20453;-78
2023/08/20 10:11:25;;;;;;;11.87;10.70;;;32.90;99.90;;;;;;5059803;28;20468;-78
2023/08/20 10:13:55;;;;;;;11.90;10.73;;;32.60;99.90;;;;;;5061602;28;20478;-77
2023/08/20 10:16:23;;;;;;;11.27;10.43;;;32.30;99.90;;;;;;5065601;28;20450;-76
2023/08/20 10:18:53;;;;;;;12.23;11.33;;;31.80;99.90;;;;;;5061529;28;20476;-77
2023/08/20 10:21:24;;;;;;;13.37;12.00;;;32.10;99.90;;;;;;5059527;28;20484;-78
2023/08/20 10:23:55;;;;;;;12.20;11.30;;;32.40;99.90;;;;;;5060062;28;20792;-77
2023/08/20 10:26:26;;;;;;;11.17;10.27;;;33.10;99.90;;;;;;5057902;28;20469;-77
2023/08/20 10:29:32;;;;;;;11.30;10.40;;;33.60;99.90;;;;;;5058154;28;20449;-76
2023/08/20 10:32:00;;;;;;;11.20;10.30;;;33.90;99.90;;;;;;5058396;28;20532;-79
2023/08/20 10:34:41;;;;;;;11.83;10.77;;;34.20;99.90;;;;;;5053695;28;20452;-77
2023/08/20 10:37:14;;;;;;;11.70;10.57;;;34.20;99.90;;;;;;5054154;28;20476;-79
2023/08/20 10:39:43;;;;;;;11.00;10.20;;;34.40;99.90;;;;;;5053627;28;20464;-77
2023/08/20 10:42:43;;;;;;;10.23;9.43;;;34.50;99.90;;;;;;5053587;28;20545;-78
2023/08/20 10:45:12;;;;;;;9.80;9.10;;;34.40;99.90;;;;;;5053775;28;20536;-79
2023/08/20 10:47:48;;;;;;;9.77;9.07;;;34.50;99.90;;;;;;5053709;28;20513;-78
2023/08/20 10:50:21;;;;;;;10.43;9.53;;;34.50;99.90;;;;;;5052603;28;20425;-77
2023/08/20 10:52:51;;;;;;;9.80;9.00;;;34.80;99.90;;;;;;5051530;28;20445;-77
2023/08/20 10:55:24;;;;;;;10.67;9.70;;;34.50;99.90;;;;;;5053082;28;20460;-77
2023/08/20 10:58:02;;;;;;;9.67;8.93;;;34.80;99.90;;;;;;5052033;28;20440;-78
2023/08/20 11:00:30;;;;;;;9.73;8.90;;;35.00;99.90;;;;;;5052648;28;20441;-77
2023/08/20 11:03:00;;;;;;;10.43;9.10;;;35.30;99.90;;;;;;5051867;28;20521;-78
2023/08/20 11:05:31;;;;;;;9.10;8.40;;;35.70;99.90;;;;;;5052207;28;20941;-79
2023/08/20 11:08:00;;;;;;;9.03;8.43;;;35.60;99.90;;;;;;5052877;28;21060;-75
2023/08/20 11:10:41;;;;;;;9.97;9.27;;;36.00;99.90;;;;;;5053575;28;20457;-77
2023/08/20 11:13:13;;;;;;;9.53;8.80;;;35.60;99.90;;;;;;5052004;28;20477;-78
2023/08/20 11:15:45;;;;;;;8.90;8.23;;;35.60;99.90;;;;;;5054214;28;20453;-78
2023/08/20 11:18:15;;;;;;;10.00;9.20;;;35.40;99.90;;;;;;5056762;28;20451;-78
2023/08/20 11:20:50;;;;;;;9.47;8.77;;;34.20;99.90;;;;;;5056991;28;20449;-77
2023/08/20 11:23:19;;;;;;;9.67;8.87;;;34.30;99.90;;;;;;5056146;28;20511;-77
2023/08/20 11:25:48;;;;;;;8.53;7.77;;;35.50;99.90;;;;;;5056885;28;20460;-76
2023/08/20 11:28:24;;;;;;;8.50;7.80;;;35.50;99.90;;;;;;5058857;28;20453;-77
2023/08/20 11:30:54;;;;;;;8.30;7.60;;;36.00;99.90;;;;;;5058824;28;20433;-81
2023/08/20 11:33:23;;;;;;;9.00;8.50;;;35.60;99.90;;;;;;5057308;28;20528;-78
2023/08/20 11:35:53;;;;;;;8.70;8.00;;;36.00;99.90;;;;;;5055801;28;20531;-78
2023/08/20 11:38:25;;;;;;;9.00;8.30;;;36.20;99.90;;;;;;5057852;28;20925;-78
2023/08/20 11:40:57;;;;;;;8.77;8.00;;;36.30;99.90;;;;;;5057368;28;20430;-77
2023/08/20 11:43:29;;;;;;;8.53;7.87;;;36.20;99.90;;;;;;5057823;28;20975;-78
2023/08/20 11:46:00;;;;;;;9.53;8.73;;;35.20;99.90;;;;;;5058638;28;20498;-77
2023/08/20 11:48:38;;;;;;;9.80;9.00;;;34.90;99.90;;;;;;5058210;28;20453;-76
2023/08/20 11:51:07;;;;;;;9.57;8.10;;;34.60;99.90;;;;;;5060092;28;20508;-77
2023/08/20 11:53:40;;;;;;;8.87;8.10;;;34.90;99.90;;;;;;5060676;28;20532;-77
2023/08/20 11:56:14;;;;;;;8.60;7.90;;;35.30;99.90;;;;;;5057235;28;20852;-77
2023/08/20 11:58:59;;;;;;;9.13;8.33;;;35.20;99.90;;;;;;5058455;28;20461;-78
2023/08/20 12:01:34;;;;;;;8.57;7.87;;;34.70;99.90;;;;;;5058527;28;20433;-77
2023/08/20 12:04:09;;;;;;;8.53;7.73;;;35.30;99.90;;;;;;5059569;28;20431;-76
2023/08/20 12:06:40;;;;;;;7.83;7.20;;;35.50;99.90;;;;;;5064476;28;20476;-78
2023/08/20 12:09:24;;;;;;;12.20;7.80;;;36.00;99.90;;;;;;5072649;28;20440;-76
2023/08/20 12:11:55;;;;;;;7.83;7.13;;;35.90;99.90;;;;;;5071961;28;20549;-76
2023/08/20 12:14:26;;;;;;;7.93;7.33;;;36.70;99.90;;;;;;5067407;28;20480;-80
2023/08/20 12:16:58;;;;;;;8.00;7.40;;;37.00;99.90;;;;;;5069065;28;20529;-78
2023/08/20 12:19:30;;;;;;;7.70;6.97;;;37.10;99.90;;;;;;5069670;28;20489;-77
2023/08/20 12:21:58;;;;;;;7.83;7.13;;;37.40;99.90;;;;;;5070070;28;20477;-77
2023/08/20 12:24:27;;;;;;;8.03;7.47;;;36.70;99.90;;;;;;5070103;28;20441;-77
2023/08/20 12:26:59;;;;;;;7.83;7.13;;;37.10;99.90;;;;;;5070848;28;20478;-76
2023/08/20 12:29:34;;;;;;;8.70;8.00;;;37.10;99.90;;;;;;5078455;28;20426;-77
2023/08/20 12:32:08;;;;;;;7.27;6.77;;;37.60;99.20;;;;;;5078630;28;20475;-77
2023/08/20 12:34:38;;;;;;;8.77;7.07;;;37.60;99.50;;;;;;5077831;28;20445;-77
2023/08/20 12:37:09;;;;;;;8.07;7.20;;;37.00;99.60;;;;;;5078240;28;20478;-77
2023/08/20 12:39:38;;;;;;;7.37;6.87;;;36.90;99.20;;;;;;5064990;28;20443;-77
2023/08/20 12:42:09;;;;;;;7.70;7.10;;;36.90;99.60;;;;;;5058006;28;20443;-77
2023/08/20 12:44:42;;;;;;;8.17;7.60;;;37.30;98.60;;;;;;5057851;28;20458;-75
2023/08/20 12:47:14;;;;;;;8.43;7.63;;;37.00;97.90;;;;;;5057723;28;20490;-76
2023/08/20 12:49:49;;;;;;;8.13;7.43;;;36.90;98.10;;;;;;5076280;28;20434;-77
2023/08/20 12:52:18;;;;;;;7.77;7.17;;;37.00;97.70;;;;;;5077528;28;20445;-77
2023/08/20 12:55:11;;;;;;;8.30;6.73;;;37.40;96.80;;;;;;5077108;28;20465;-77
2023/08/20 13:00:51;;;;;;;7.47;6.97;;;38.00;95.80;;;;;;5052289;28;20419;-79
2023/08/20 13:03:23;;;;;;;7.40;6.80;;;37.40;96.30;;;;;;5077574;28;20444;-77
2023/08/20 13:06:05;;;;;;;6.63;6.20;;;37.20;96.90;;;;;;5076934;28;20461;-78
2023/08/20 13:08:41;;;;;;;7.10;6.47;;;37.50;95.80;;;;;;5075945;28;20472;-77
2023/08/20 13:11:26;;;;;;;6.67;6.07;;;37.40;95.90;;;;;;5076383;28;20454;-77
2023/08/20 13:13:59;;;;;;;7.53;6.97;;;37.90;95.30;;;;;;5077773;28;20453;-75
2023/08/20 13:16:35;;;;;;;7.20;6.60;;;37.40;95.40;;;;;;5076379;28;20454;-76
2023/08/20 13:19:05;;;;;;;6.57;6.17;;;37.20;95.90;;;;;;5078000;28;20445;-78
2023/08/20 13:21:35;;;;;;;7.40;6.90;;;37.60;95.60;;;;;;5069258;28;20481;-77
2023/08/20 13:30:26;;;;;;;6.70;6.20;;;38.20;93.90;;;;;;5077218;28;20400;-78
2023/08/20 13:33:00;;;;;;;7.63;7.00;;;38.20;94.10;;;;;;5077321;28;20430;-77
2023/08/20 13:35:33;;;;;;;7.70;7.10;;;38.20;93.40;;;;;;5076945;28;20445;-77
2023/08/20 13:38:06;;;;;;;7.10;6.40;;;38.20;93.30;;;;;;5077436;28;20430;-77
2023/08/20 13:40:37;;;;;;;7.80;6.90;;;38.20;93.00;;;;;;5076590;28;20438;-78
2023/08/20 13:43:16;;;;;;;7.20;6.50;;;38.40;92.80;;;;;;5077624;28;20413;-78
2023/08/20 13:45:44;;;;;;;7.13;6.53;;;38.50;92.60;;;;;;5077032;28;20520;-78
2023/08/20 13:48:17;;;;;;;7.30;6.70;;;38.40;92.50;;;;;;5077536;28;20461;-81
2023/08/20 13:50:50;;;;;;;7.97;6.60;;;38.10;92.60;;;;;;5077633;28;20425;-77